Time;durP1;ratioP1;P1;durP2;ratioP2;P2;SDS_P1;SDS_P2;PMS_P1;PMS_P2;Temp;Humidity;BMP_temperature;BMP_pressure;BME280_temperature;BME280_humidity;BME280_pressure;Samples;Min_cycle;Max_cycle;Signal;HPM_P1;HPM_P2
2023/06/21 00:01:38;;;;;;;2.22;2.13;;;22.30;99.90;;;22.71;93.72;101063.22;5055137;28;20079;-67
2023/06/21 00:04:06;;;;;;;2.22;2.13;;;22.30;99.90;;;22.72;93.53;101054.19;5055477;28;20107;-67
2023/06/21 00:06:35;;;;;;;2.40;2.30;;;22.30;99.90;;;22.73;93.55;101066.72;5051186;28;20056;-68
2023/06/21 00:09:04;;;;;;;2.72;2.63;;;22.30;99.90;;;22.68;93.35;101063.41;5054901;28;20098;-68
2023/06/21 00:11:33;;;;;;;2.40;2.30;;;22.30;99.90;;;22.74;92.97;101047.78;5054781;28;20132;-68
2023/06/21 00:14:03;;;;;;;2.45;2.35;;;22.30;99.90;;;22.71;92.80;101049.72;5054840;28;20404;-67
2023/06/21 00:16:32;;;;;;;2.20;2.10;;;22.30;99.90;;;22.54;92.39;101033.50;5055065;28;20383;-67
2023/06/21 00:19:00;;;;;;;2.40;2.30;;;22.30;99.90;;;22.67;92.40;101061.63;5054702;28;20386;-68
2023/06/21 00:21:29;;;;;;;2.50;2.40;;;22.20;99.90;;;22.64;92.12;101059.97;5054666;28;20029;-67
2023/06/21 00:24:02;;;;;;;2.20;2.10;;;22.20;99.90;;;22.53;91.92;101043.41;5054853;28;20432;-67
2023/06/21 00:26:31;;;;;;;2.38;2.28;;;22.20;99.90;;;22.68;91.90;101068.78;5051202;28;20053;-68
2023/06/21 00:28:59;;;;;;;2.22;2.13;;;22.20;99.90;;;22.65;91.71;101075.19;5054529;28;20068;-67
2023/06/21 00:31:30;;;;;;;2.47;2.38;;;22.20;99.90;;;22.63;91.61;101074.41;5053400;28;20398;-67
2023/06/21 00:33:59;;;;;;;2.25;2.15;;;22.20;99.90;;;22.43;91.37;101045.72;5054700;28;20367;-67
2023/06/21 00:36:27;;;;;;;2.35;2.25;;;22.20;99.90;;;22.61;91.34;101076.31;5053826;28;20049;-67
2023/06/21 00:38:55;;;;;;;2.38;2.28;;;22.20;99.90;;;22.61;91.25;101079.00;5053254;28;20098;-67
2023/06/21 00:41:24;;;;;;;2.40;2.30;;;22.20;99.90;;;22.53;90.89;101086.56;5054618;28;20041;-67
2023/06/21 00:43:54;;;;;;;2.47;2.38;;;22.20;99.90;;;22.43;91.13;101083.47;5054148;28;20080;-67
2023/06/21 00:46:22;;;;;;;2.10;2.00;;;22.10;99.90;;;22.56;91.11;101110.69;5053866;28;20398;-69
2023/06/21 00:48:54;;;;;;;2.50;2.40;;;22.10;99.90;;;22.54;90.89;101109.03;5050074;28;20059;-67
2023/06/21 00:51:22;;;;;;;2.38;2.28;;;22.10;99.90;;;22.47;90.84;101104.88;5053350;28;20383;-67
2023/06/21 00:53:51;;;;;;;2.20;2.10;;;22.20;99.90;;;22.56;90.84;101126.88;5051777;28;20049;-67
2023/06/21 00:56:21;;;;;;;2.67;2.58;;;22.10;99.90;;;22.59;90.97;101131.28;5052071;28;20387;-67
2023/06/21 00:58:50;;;;;;;2.30;2.20;;;22.10;99.90;;;22.58;90.87;101132.22;5051714;28;20102;-67
2023/06/21 01:01:18;;;;;;;2.33;2.22;;;22.20;99.90;;;22.55;90.49;101137.75;5051985;28;20068;-67
2023/06/21 01:03:47;;;;;;;2.20;2.10;;;22.10;99.90;;;22.52;90.56;101135.19;5052022;28;20498;-67
2023/06/21 01:06:25;;;;;;;2.40;2.30;;;22.10;99.90;;;22.42;90.42;101115.91;5052046;28;20541;-67
2023/06/21 01:09:11;;;;;;;2.55;2.45;;;22.10;99.90;;;22.53;90.37;101145.03;5050515;28;20045;-67
2023/06/21 01:11:50;;;;;;;2.35;2.25;;;22.10;99.90;;;22.54;90.35;101141.38;5049168;28;20612;-67
2023/06/21 01:14:28;;;;;;;2.40;2.30;;;22.10;99.90;;;22.55;90.33;101151.22;5053075;28;20071;-67
2023/06/21 01:16:57;;;;;;;2.80;2.70;;;22.10;99.90;;;22.56;90.21;101144.88;5052857;28;20482;-67
2023/06/21 01:19:37;;;;;;;2.00;1.90;;;22.10;99.90;;;22.55;90.19;101154.78;5051731;28;20526;-67
2023/06/21 01:22:32;;;;;;;2.30;2.20;;;22.10;99.90;;;22.52;90.41;101144.16;5053123;28;20103;-68
2023/06/21 01:25:23;;;;;;;2.17;2.08;;;22.10;99.90;;;22.56;90.40;101151.16;5049798;28;20056;-69
2023/06/21 01:28:09;;;;;;;2.17;2.08;;;22.10;99.90;;;22.58;90.58;101153.81;5049071;28;20060;-68
2023/06/21 01:30:40;;;;;;;2.20;2.10;;;22.10;99.90;;;22.59;90.54;101142.94;5039934;28;20055;-68
2023/06/21 01:33:10;;;;;;;2.17;2.08;;;22.20;99.90;;;22.59;90.75;101132.13;5052899;28;20049;-67
2023/06/21 01:35:39;;;;;;;2.30;2.20;;;22.20;99.90;;;22.24;90.90;101077.22;5051174;28;20059;-67
2023/06/21 01:38:08;;;;;;;2.75;2.65;;;22.20;99.90;;;22.62;90.78;101148.19;5052255;28;20087;-68
2023/06/21 01:40:38;;;;;;;2.28;2.17;;;22.20;99.90;;;22.59;91.21;101145.63;5051041;28;20095;-68
2023/06/21 01:43:07;;;;;;;2.42;2.33;;;22.20;99.90;;;22.55;91.37;101151.22;5051122;28;20056;-66
2023/06/21 01:45:36;;;;;;;2.65;2.55;;;22.20;99.90;;;22.53;91.52;101143.19;5052239;28;20075;-66
2023/06/21 01:48:07;;;;;;;3.30;3.20;;;22.10;99.90;;;22.48;91.24;101126.38;5063497;28;20052;-67
2023/06/21 01:50:37;;;;;;;2.70;2.60;;;22.20;99.90;;;22.56;91.29;101150.28;5052285;28;20098;-67
2023/06/21 01:53:06;;;;;;;2.83;2.72;;;22.20;99.90;;;22.50;90.90;101145.19;5050457;28;20143;-66
2023/06/21 01:55:36;;;;;;;2.30;2.20;;;22.10;99.90;;;22.47;90.48;101138.13;5084193;28;20083;-66
2023/06/21 01:58:06;;;;;;;2.28;2.17;;;22.10;99.90;;;22.43;90.58;101144.63;5050661;28;20060;-66
2023/06/21 02:00:35;;;;;;;2.05;1.95;;;22.00;99.90;;;22.41;90.47;101155.44;5051766;28;20053;-68
2023/06/21 02:03:08;;;;;;;2.35;2.25;;;22.00;99.90;;;22.44;90.18;101157.13;5051864;28;20188;-66
2023/06/21 02:05:37;;;;;;;2.53;2.42;;;22.00;99.90;;;22.40;89.98;101161.81;5048521;28;20073;-66
2023/06/21 02:08:15;;;;;;;2.65;2.55;;;22.00;99.90;;;22.38;89.78;101162.81;5050341;28;20077;-67
2023/06/21 02:10:45;;;;;;;2.40;2.30;;;21.90;99.90;;;21.93;89.63;101084.19;5051842;28;20079;-67
2023/06/21 02:13:14;;;;;;;2.92;2.78;;;22.00;99.90;;;22.42;89.49;101165.31;5050345;28;20041;-66
2023/06/21 02:15:43;;;;;;;2.30;2.20;;;22.00;99.90;;;22.45;89.46;101167.00;5049959;28;20111;-66
2023/06/21 02:18:14;;;;;;;2.85;2.75;;;22.00;99.90;;;22.48;89.43;101160.56;5047572;28;20063;-67
2023/06/21 02:20:43;;;;;;;2.40;2.30;;;22.00;99.90;;;22.47;89.29;101161.50;5051365;28;20048;-66
2023/06/21 02:23:11;;;;;;;2.30;2.20;;;22.10;99.90;;;22.49;89.21;101165.00;5049940;28;20048;-68
2023/06/21 02:25:40;;;;;;;2.80;2.70;;;22.10;99.90;;;22.48;89.11;101169.53;5050193;28;20053;-67
2023/06/21 02:28:08;;;;;;;2.35;2.25;;;22.10;99.90;;;22.48;88.86;101168.63;5051866;28;20124;-66
2023/06/21 02:30:36;;;;;;;2.50;2.40;;;22.10;99.90;;;22.45;89.01;101175.06;5083815;28;20135;-66
2023/06/21 02:33:05;;;;;;;2.28;2.17;;;22.00;99.90;;;22.43;89.23;101183.22;5051346;28;20128;-66
2023/06/21 02:35:36;;;;;;;4.57;2.95;;;22.00;99.90;;;22.44;89.01;101181.41;5050003;28;20056;-66
2023/06/21 02:38:06;;;;;;;2.60;2.50;;;22.00;99.90;;;22.45;89.09;101178.63;5063006;28;20055;-66
2023/06/21 02:40:35;;;;;;;2.53;2.42;;;22.00;99.90;;;22.45;89.21;101178.63;5051402;28;20119;-66
2023/06/21 02:43:04;;;;;;;2.70;2.60;;;22.10;99.90;;;22.48;89.14;101192.91;5051123;28;20047;-66
2023/06/21 02:45:33;;;;;;;2.45;2.35;;;22.10;99.90;;;22.46;88.73;101193.00;5051401;28;20045;-66
2023/06/21 02:48:02;;;;;;;2.40;2.30;;;22.10;99.90;;;22.45;88.90;101192.09;5051133;28;20433;-66
2023/06/21 02:50:30;;;;;;;2.30;2.20;;;22.00;99.90;;;22.43;88.86;101193.16;5051127;28;20060;-66
2023/06/21 02:53:01;;;;;;;2.60;2.50;;;22.10;99.90;;;22.43;88.56;101187.75;5050835;28;20139;-67
2023/06/21 02:55:29;;;;;;;2.45;2.35;;;22.00;99.90;;;22.37;88.69;101188.06;5058191;28;20087;-67
2023/06/21 02:57:58;;;;;;;2.30;2.20;;;22.00;99.90;;;22.27;88.81;101176.84;5051490;28;20048;-66
2023/06/21 03:00:28;;;;;;;2.30;2.20;;;22.00;99.90;;;22.36;88.68;101202.47;5045895;28;20048;-66
2023/06/21 03:02:59;;;;;;;2.33;2.22;;;22.00;99.90;;;22.34;88.53;101210.63;5051120;28;20528;-65
2023/06/21 03:05:29;;;;;;;3.15;2.63;;;22.00;99.90;;;21.74;88.33;101104.84;5051071;28;20345;-66
2023/06/21 03:08:00;;;;;;;2.58;2.47;;;21.90;99.90;;;22.35;88.10;101212.41;5051101;28;20044;-66
2023/06/21 03:10:29;;;;;;;3.83;3.63;;;21.90;99.90;;;22.34;87.67;101209.75;5051153;28;20103;-66
2023/06/21 03:12:58;;;;;;;2.28;2.17;;;22.00;99.90;;;22.36;87.66;101215.94;5058254;28;20099;-66
2023/06/21 03:15:27;;;;;;;2.58;2.47;;;22.00;99.90;;;22.34;87.38;101225.91;5063144;28;20045;-66
2023/06/21 03:17:56;;;;;;;2.45;2.35;;;22.00;99.90;;;22.26;87.17;101236.22;5049684;28;20056;-66
2023/06/21 03:20:26;;;;;;;3.70;3.38;;;21.90;99.90;;;22.32;86.96;101238.59;5066402;28;20401;-66
2023/06/21 03:22:55;;;;;;;;;;;21.90;99.90;;;22.32;86.67;101247.56;5051300;28;20140;-66
2023/06/21 03:25:28;;;;;;;2.97;2.88;;;21.90;99.90;;;22.28;86.33;101247.78;5041539;28;19920;-66
2023/06/21 03:27:59;;;;;;;2.28;2.17;;;21.90;99.90;;;22.24;85.83;101241.66;5049598;28;20513;-66
2023/06/21 03:30:29;;;;;;;2.47;2.38;;;21.90;99.90;;;22.22;85.29;101234.59;5049532;28;20057;-66
2023/06/21 03:32:59;;;;;;;2.63;2.53;;;21.80;99.90;;;22.26;85.11;101241.59;5063005;28;20112;-66
2023/06/21 03:35:29;;;;;;;2.50;2.40;;;21.90;99.90;;;22.25;84.76;101246.13;5050873;28;20107;-66
2023/06/21 03:37:58;;;;;;;2.10;2.00;;;21.90;99.90;;;22.23;84.66;101248.00;5050909;28;20048;-66
2023/06/21 03:40:36;;;;;;;2.55;2.45;;;21.90;99.90;;;22.24;84.44;101246.19;5049529;28;20119;-66
2023/06/21 03:43:04;;;;;;;2.63;2.53;;;21.90;99.90;;;22.25;83.94;101254.19;5049396;28;20067;-67
2023/06/21 03:45:34;;;;;;;2.10;2.00;;;21.90;99.90;;;22.23;83.79;101244.44;5049367;28;20052;-67
2023/06/21 03:48:05;;;;;;;2.50;2.40;;;21.90;99.90;;;22.23;83.54;101255.22;5045652;28;20144;-69
2023/06/21 03:50:36;;;;;;;2.45;2.35;;;21.80;99.90;;;22.19;83.36;101259.88;5049457;28;20523;-66
2023/06/21 03:53:05;;;;;;;4.03;3.83;;;21.80;99.90;;;22.19;83.22;101261.69;5065652;28;20057;-67
2023/06/21 03:55:37;;;;;;;2.55;2.45;;;21.80;99.90;;;22.14;82.98;101261.88;5050385;28;20045;-68
2023/06/21 03:58:08;;;;;;;2.63;2.53;;;21.80;99.90;;;22.13;82.76;101273.63;5049472;28;20055;-66
2023/06/21 04:00:36;;;;;;;2.22;2.13;;;21.70;99.90;;;22.13;82.79;101276.31;5049384;28;20041;-66
2023/06/21 04:03:05;;;;;;;2.30;2.20;;;21.70;99.90;;;22.11;83.00;101274.63;5066100;28;20051;-67
2023/06/21 04:05:33;;;;;;;2.42;2.33;;;21.70;99.90;;;22.07;82.76;101268.50;5057879;28;20076;-67
2023/06/21 04:08:05;;;;;;;2.80;2.70;;;21.70;99.90;;;22.08;82.83;101275.66;5048934;28;20049;-67
2023/06/21 04:10:35;;;;;;;2.50;2.40;;;21.70;99.90;;;22.06;83.20;101285.63;5050619;28;20493;-68
2023/06/21 04:13:04;;;;;;;2.83;2.72;;;21.70;99.90;;;22.06;83.32;101291.03;5052762;28;20044;-67
2023/06/21 04:15:34;;;;;;;2.72;2.63;;;21.70;99.90;;;22.07;83.49;101287.38;5052625;28;20037;-68
2023/06/21 04:18:02;;;;;;;2.40;2.30;;;21.70;99.90;;;22.09;83.48;101290.88;5054346;28;20070;-67
2023/06/21 04:20:32;;;;;;;2.47;2.38;;;21.70;99.90;;;22.08;83.63;101288.25;5049912;28;20059;-68
2023/06/21 04:23:00;;;;;;;2.30;2.20;;;21.70;99.90;;;22.08;83.52;101299.03;5054182;28;20067;-68
2023/06/21 04:25:29;;;;;;;2.63;2.53;;;21.70;99.90;;;22.06;83.30;101287.44;5054051;28;20041;-67
2023/06/21 04:27:58;;;;;;;2.42;2.33;;;21.70;99.90;;;22.09;83.17;101298.06;5053893;28;20045;-67
2023/06/21 04:30:34;;;;;;;2.40;2.30;;;21.70;99.90;;;22.09;82.88;101301.66;5052501;28;20048;-67
2023/06/21 04:33:03;;;;;;;2.30;2.20;;;21.70;99.90;;;22.07;82.64;101300.84;5053630;28;20045;-67
2023/06/21 04:35:33;;;;;;;2.42;2.33;;;21.70;99.90;;;22.04;82.65;101309.09;5053460;28;20453;-67
2023/06/21 04:38:01;;;;;;;2.63;2.53;;;21.70;99.90;;;22.08;82.60;101308.00;5049596;28;20073;-67
2023/06/21 04:40:31;;;;;;;2.10;2.00;;;21.70;99.90;;;22.08;82.12;101310.69;5048887;28;20053;-67
2023/06/21 04:43:03;;;;;;;2.40;2.30;;;21.70;99.90;;;22.06;81.96;101306.31;5053313;28;20098;-67
2023/06/21 04:45:32;;;;;;;2.50;2.40;;;21.70;99.90;;;22.05;82.11;101302.72;5053421;28;20041;-67
2023/06/21 04:48:00;;;;;;;2.28;2.17;;;21.70;99.90;;;22.07;82.05;101308.94;5048404;28;20060;-65
2023/06/21 04:50:30;;;;;;;3.10;3.00;;;21.70;99.90;;;22.04;82.03;101309.09;5053107;28;20072;-64
2023/06/21 04:53:01;;;;;;;2.55;2.45;;;21.60;99.90;;;22.09;82.09;101303.47;5053384;28;20103;-65
2023/06/21 04:55:29;;;;;;;2.55;2.45;;;21.70;99.90;;;21.67;81.78;101238.88;5053089;28;20061;-65
2023/06/21 04:57:58;;;;;;;2.33;2.22;;;21.70;99.90;;;22.07;81.29;101305.34;5049571;28;20083;-65
2023/06/21 05:00:29;;;;;;;2.30;2.20;;;21.70;99.90;;;22.06;81.31;101315.28;5051806;28;20072;-64
2023/06/21 05:02:58;;;;;;;2.70;2.60;;;21.70;99.90;;;22.08;81.21;101317.91;5052922;28;20041;-65
2023/06/21 05:05:27;;;;;;;2.20;2.10;;;21.70;99.90;;;22.08;81.02;101321.47;5053113;28;20071;-64
2023/06/21 05:07:55;;;;;;;2.28;2.17;;;21.70;99.90;;;22.12;81.28;101324.91;5053029;28;20056;-67
2023/06/21 05:10:23;;;;;;;2.30;2.20;;;21.70;99.90;;;22.14;81.07;101331.94;5052770;28;20116;-68
2023/06/21 05:12:52;;;;;;;2.70;2.60;;;21.80;99.90;;;22.17;80.98;101329.13;5052957;28;20052;-67
2023/06/21 05:15:20;;;;;;;2.60;2.50;;;21.80;99.90;;;22.24;81.08;101338.69;5052498;28;20131;-68
2023/06/21 05:17:50;;;;;;;2.63;2.53;;;21.90;99.90;;;22.28;81.10;101332.22;5052734;28;20072;-68
2023/06/21 05:20:20;;;;;;;2.53;2.42;;;21.90;99.90;;;22.16;81.09;101324.69;5049159;28;20147;-68
2023/06/21 05:22:49;;;;;;;2.40;2.30;;;21.90;99.90;;;22.20;81.21;101330.84;5052672;28;20461;-67
2023/06/21 05:25:18;;;;;;;2.30;2.20;;;21.90;99.90;;;21.91;81.05;101280.91;5052425;28;20136;-67
2023/06/21 05:27:47;;;;;;;173.13;24.25;;;21.90;99.90;;;22.25;80.91;101340.47;5052444;28;20064;-67
2023/06/21 05:30:15;;;;;;;2.30;2.20;;;21.90;99.90;;;22.35;81.09;101352.59;5068010;28;20045;-68
2023/06/21 05:32:44;;;;;;;2.42;2.33;;;22.00;99.90;;;22.41;81.15;101354.97;5052885;28;20056;-67
2023/06/21 05:35:14;;;;;;;2.28;2.17;;;22.00;99.90;;;22.43;80.66;101360.31;5053038;28;20048;-68
2023/06/21 05:37:42;;;;;;;2.67;2.58;;;22.00;99.90;;;22.36;80.59;101342.66;5052286;28;20040;-67
2023/06/21 05:40:12;;;;;;;2.60;2.50;;;22.10;99.90;;;22.52;80.27;101354.50;5052598;28;20106;-67
2023/06/21 05:42:40;;;;;;;2.20;2.10;;;22.20;99.90;;;22.57;79.41;101367.81;5052418;28;20440;-67
2023/06/21 05:45:10;;;;;;;3.80;3.55;;;22.20;99.90;;;22.59;78.40;101365.94;5052261;28;20041;-67
2023/06/21 05:47:39;;;;;;;2.25;2.15;;;22.20;99.90;;;22.52;77.75;101367.09;5052414;28;20397;-67
2023/06/21 05:50:08;;;;;;;2.60;2.50;;;22.10;99.90;;;22.58;77.59;101364.16;5052693;28;20122;-68
2023/06/21 05:52:38;;;;;;;2.55;2.45;;;22.20;99.90;;;22.64;77.43;101358.50;5052104;28;20418;-67
2023/06/21 05:55:07;;;;;;;2.63;2.53;;;22.30;99.90;;;22.70;76.99;101367.19;5052551;28;20390;-67
2023/06/21 05:57:36;;;;;;;2.70;2.60;;;22.30;99.90;;;22.80;77.29;101373.03;5052174;28;20091;-67
2023/06/21 06:00:09;;;;;;;2.22;2.13;;;22.40;99.90;;;22.89;76.70;101380.69;5052116;28;20409;-67
2023/06/21 06:02:45;;;;;;;2.22;2.13;;;22.50;99.90;;;22.77;76.32;101352.44;5050215;28;20040;-67
2023/06/21 06:05:15;;;;;;;2.38;2.28;;;22.50;99.90;;;22.97;76.30;101382.06;5052030;28;20444;-68
2023/06/21 06:07:44;;;;;;;2.38;2.28;;;22.60;99.90;;;22.99;75.81;101376.59;5052143;28;20055;-69
2023/06/21 06:10:13;;;;;;;2.20;2.10;;;22.60;99.90;;;23.09;75.60;101383.31;5051755;28;20825;-67
2023/06/21 06:12:41;;;;;;;2.30;2.20;;;22.70;99.90;;;23.10;74.76;101394.03;5063858;28;20124;-66
2023/06/21 06:15:10;;;;;;;2.50;2.40;;;22.70;99.90;;;23.15;75.47;101399.22;5047920;28;20332;-68
2023/06/21 06:17:39;;;;;;;2.40;2.30;;;22.70;99.90;;;23.24;74.75;101404.19;5051441;28;20049;-67
2023/06/21 06:20:09;;;;;;;2.00;1.90;;;22.80;99.90;;;22.94;75.02;101330.94;5051477;28;20131;-67
2023/06/21 06:22:39;;;;;;;2.50;2.40;;;22.90;99.90;;;23.23;74.17;101403.28;5050396;28;20406;-67
2023/06/21 06:25:10;;;;;;;2.95;2.80;;;22.90;99.90;;;23.29;75.24;101407.53;5051520;28;20462;-67
2023/06/21 06:27:39;;;;;;;2.25;2.15;;;22.90;99.90;;;23.38;75.54;101415.22;5050376;28;20048;-67
2023/06/21 06:30:09;;;;;;;2.35;2.25;;;22.90;99.90;;;23.43;75.44;101399.66;5051542;28;20079;-67
2023/06/21 06:32:37;;;;;;;2.37;2.27;;;23.10;99.90;;;23.67;75.03;101422.78;5051333;28;20049;-68
2023/06/21 06:35:07;;;;;;;2.50;2.40;;;23.30;99.90;;;23.67;74.45;101421.91;5045874;28;20394;-68
2023/06/21 06:37:36;;;;;;;2.30;2.20;;;23.30;99.90;;;23.69;73.89;101423.53;5051387;28;20053;-68
2023/06/21 06:40:06;;;;;;;2.40;2.30;;;23.30;99.90;;;23.77;73.79;101432.16;5051356;28;20071;-67
2023/06/21 06:42:36;;;;;;;2.47;2.38;;;23.30;99.90;;;23.91;74.28;101440.44;5051577;28;20490;-68
2023/06/21 06:45:08;;;;;;;3.08;2.88;;;23.50;99.90;;;23.96;73.12;101432.13;5051250;28;20056;-68
2023/06/21 06:47:37;;;;;;;2.30;2.20;;;23.60;99.90;;;23.94;73.22;101434.88;5051766;28;20045;-68
2023/06/21 06:50:07;;;;;;;2.60;2.50;;;23.60;99.90;;;23.86;72.67;101442.53;5051145;28;20428;-68
2023/06/21 06:52:35;;;;;;;2.20;2.10;;;23.50;99.90;;;23.77;72.63;101437.56;5047680;28;20056;-68
2023/06/21 06:55:05;;;;;;;2.40;2.30;;;23.40;99.90;;;23.81;73.29;101438.31;5049962;28;20045;-67
2023/06/21 06:57:36;;;;;;;3.35;2.25;;;23.40;99.90;;;23.91;73.37;101444.97;5051189;28;20049;-67
2023/06/21 07:00:18;;;;;;;2.20;2.10;;;23.50;99.90;;;23.99;73.27;101451.75;5051574;28;20513;-67
2023/06/21 07:02:46;;;;;;;2.08;1.98;;;23.50;99.90;;;23.92;73.13;101449.44;5051076;28;20467;-68
2023/06/21 07:05:15;;;;;;;2.17;2.08;;;23.50;99.90;;;23.92;73.16;101449.44;5050968;28;20049;-68
2023/06/21 07:07:44;;;;;;;2.50;2.40;;;23.50;99.90;;;23.91;72.98;101456.66;5066508;28;20056;-68
2023/06/21 07:10:12;;;;;;;2.28;2.17;;;23.50;99.90;;;23.98;72.91;101458.09;5049543;28;20049;-67
2023/06/21 07:12:42;;;;;;;2.45;2.35;;;23.50;99.90;;;24.01;72.97;101463.38;5066505;28;20078;-68
2023/06/21 07:15:11;;;;;;;2.38;2.28;;;23.60;99.90;;;23.98;71.27;101462.66;5051079;28;20094;-68
2023/06/21 07:17:40;;;;;;;2.30;2.20;;;23.60;99.90;;;23.94;71.03;101461.06;5050929;28;20397;-68
2023/06/21 07:20:10;;;;;;;2.65;2.55;;;23.60;99.90;;;24.07;71.02;101473.03;5050925;28;20445;-69
2023/06/21 07:22:38;;;;;;;2.50;2.40;;;23.60;99.90;;;24.08;70.60;101481.06;5050843;28;20486;-68
2023/06/21 07:25:08;;;;;;;2.33;2.22;;;23.70;99.90;;;24.23;71.11;101481.25;5047131;28;20401;-68
2023/06/21 07:27:36;;;;;;;2.25;2.15;;;23.80;99.90;;;24.31;70.34;101479.03;5050753;28;20051;-65
2023/06/21 07:30:08;;;;;;;2.30;2.20;;;23.90;99.90;;;24.43;69.65;101486.50;5051147;28;20056;-68
2023/06/21 07:32:37;;;;;;;2.25;2.15;;;23.90;99.90;;;24.50;69.07;101482.53;5051301;28;20224;-67
2023/06/21 07:35:07;;;;;;;2.20;2.10;;;24.10;99.90;;;24.46;67.70;101480.94;5050738;28;20545;-68
2023/06/21 07:37:36;;;;;;;;;;;24.10;99.90;;;24.45;68.40;101488.16;5050969;28;20037;-68
2023/06/21 07:40:05;;;;;;;2.03;1.92;;;24.10;99.90;;;24.51;68.56;101485.13;5050599;28;19925;-67
2023/06/21 07:42:34;;;;;;;2.20;2.10;;;24.10;99.90;;;24.51;68.64;101495.06;5050777;28;20091;-68
2023/06/21 07:45:07;;;;;;;2.33;2.22;;;24.10;99.90;;;24.64;68.83;101490.81;5050330;28;20045;-66
2023/06/21 07:47:36;;;;;;;2.13;2.03;;;24.20;99.90;;;24.66;68.71;101478.06;5054209;28;20072;-68
2023/06/21 07:50:06;;;;;;;2.28;2.17;;;24.30;99.90;;;24.76;68.07;101495.56;5054367;28;20136;-66
2023/06/21 07:52:37;;;;;;;2.50;2.40;;;24.40;99.90;;;24.74;67.63;101492.06;5052796;28;20049;-66
2023/06/21 07:55:10;;;;;;;2.00;1.90;;;24.40;99.90;;;24.74;68.66;101497.50;5054177;28;20044;-66
2023/06/21 07:57:39;;;;;;;2.72;2.63;;;24.40;99.90;;;24.72;68.14;101494.88;5050449;28;20064;-66
2023/06/21 08:00:11;;;;;;;2.10;2.00;;;24.40;99.90;;;24.50;68.32;101504.16;5054318;28;20037;-66
2023/06/21 08:02:45;;;;;;;2.40;2.30;;;24.20;99.90;;;24.50;69.04;101506.88;5053996;28;20040;-66
2023/06/21 08:05:14;;;;;;;2.22;2.13;;;24.20;99.90;;;24.53;69.94;101501.28;5054308;28;20048;-66
2023/06/21 08:07:43;;;;;;;2.30;2.20;;;24.20;99.90;;;24.67;69.48;101501.44;5053931;28;20111;-66
2023/06/21 08:10:12;;;;;;;2.20;2.10;;;24.40;99.90;;;24.76;69.40;101507.28;5053801;28;20469;-66
2023/06/21 08:12:40;;;;;;;1.85;1.77;;;24.40;99.90;;;24.87;69.02;101512.16;5053928;28;20120;-66
2023/06/21 08:15:11;;;;;;;2.38;2.28;;;24.60;99.90;;;25.00;68.46;101524.06;5050634;28;20045;-66
2023/06/21 08:17:39;;;;;;;2.05;1.95;;;24.60;99.90;;;25.13;68.59;101521.56;5054071;28;20143;-66
2023/06/21 08:20:09;;;;;;;2.25;2.15;;;24.80;99.90;;;25.34;68.63;101521.25;5054139;28;20045;-68
2023/06/21 08:22:38;;;;;;;2.28;2.17;;;25.00;99.90;;;25.23;67.67;101529.13;5053924;28;20053;-67
2023/06/21 08:25:07;;;;;;;2.35;2.25;;;25.00;99.90;;;25.18;67.39;101528.50;5053735;28;20052;-67
2023/06/21 08:27:36;;;;;;;2.00;1.90;;;24.90;99.90;;;25.27;67.37;101532.53;5053838;28;20056;-65
2023/06/21 08:30:12;;;;;;;2.00;1.90;;;25.00;99.90;;;25.39;67.31;101530.06;5053611;28;20044;-65
2023/06/21 08:32:40;;;;;;;1.70;1.70;;;25.10;99.90;;;25.50;66.81;101521.31;5053895;28;20036;-66
2023/06/21 08:35:09;;;;;;;2.10;2.00;;;25.20;99.90;;;25.53;67.34;101521.16;5053596;28;20045;-66
2023/06/21 08:37:40;;;;;;;2.40;2.30;;;25.20;99.90;;;25.45;66.67;101526.13;5053395;28;20049;-65
2023/06/21 08:40:10;;;;;;;2.13;2.03;;;25.20;99.90;;;25.60;66.97;101531.56;5054101;28;20037;-65
2023/06/21 08:42:39;;;;;;;3.42;3.22;;;25.30;99.90;;;25.70;66.37;101535.53;5053387;28;20064;-65
2023/06/21 08:45:08;;;;;;;2.40;2.30;;;25.40;99.90;;;25.76;66.34;101534.31;5053453;28;20127;-66
2023/06/21 08:47:38;;;;;;;2.05;1.95;;;25.40;99.90;;;25.76;66.31;101545.16;5052221;28;20490;-66
2023/06/21 08:50:11;;;;;;;2.00;1.90;;;25.50;99.90;;;25.75;66.10;101538.84;5053434;28;20136;-66
2023/06/21 08:52:43;;;;;;;1.73;1.73;;;25.40;99.90;;;25.95;67.40;101548.56;5053296;28;20049;-65
2023/06/21 08:55:14;;;;;;;1.85;1.80;;;25.60;99.90;;;25.92;65.51;101546.00;5053959;28;20098;-66
2023/06/21 08:57:49;;;;;;;2.03;1.92;;;25.70;99.90;;;25.92;66.03;101556.84;5052783;28;20049;-65
2023/06/21 09:00:22;;;;;;;3.38;3.10;;;25.60;99.90;;;26.03;66.82;101550.81;5049847;28;20103;-66
2023/06/21 09:03:04;;;;;;;2.00;1.90;;;25.70;99.90;;;25.71;66.24;101515.56;5053115;28;20041;-65
2023/06/21 09:05:39;;;;;;;1.92;1.85;;;25.70;99.90;;;25.96;66.14;101547.56;5053009;28;20111;-66
2023/06/21 09:08:08;;;;;;;1.60;1.60;;;25.60;99.90;;;25.90;65.94;101553.34;5049833;28;20501;-65
2023/06/21 09:10:41;;;;;;;6.60;6.10;;;25.60;99.90;;;25.93;66.55;101569.47;5052899;28;20501;-66
2023/06/21 09:13:10;;;;;;;2.00;1.90;;;25.50;99.90;;;25.89;66.66;101563.34;5052945;28;20148;-66
2023/06/21 09:15:39;;;;;;;2.10;2.00;;;25.50;99.90;;;25.95;66.18;101562.13;5052714;28;20041;-66
2023/06/21 09:18:10;;;;;;;1.92;1.85;;;25.60;99.90;;;25.86;67.14;101539.09;5052610;28;20110;-66
2023/06/21 09:20:39;;;;;;;1.63;1.63;;;25.60;99.90;;;25.96;66.98;101563.00;5052745;28;20090;-66
2023/06/21 09:23:10;;;;;;;1.63;1.63;;;25.50;99.90;;;26.01;67.86;101566.31;5052576;28;20106;-66
2023/06/21 09:25:38;;;;;;;;;;;25.60;99.90;;;25.92;65.95;101564.97;5053045;28;20060;-66
2023/06/21 09:28:06;;;;;;;2.13;2.03;;;25.50;99.90;;;25.90;66.49;101559.66;5068233;28;20293;-65
2023/06/21 09:30:35;;;;;;;2.35;2.22;;;25.60;99.90;;;26.02;66.31;101568.03;5067988;28;20041;-65
2023/06/21 09:33:06;;;;;;;1.70;1.70;;;25.60;99.90;;;25.96;64.68;101569.28;5052480;28;20045;-66
2023/06/21 09:35:38;;;;;;;1.80;1.77;;;25.60;99.90;;;26.06;65.23;101564.22;5051247;28;20502;-65
2023/06/21 09:38:22;;;;;;;2.72;2.50;;;25.70;99.90;;;26.13;64.68;101571.91;5052460;28;20099;-66
2023/06/21 09:40:51;;;;;;;2.00;1.90;;;25.80;99.90;;;26.14;65.22;101570.09;5050733;28;20121;-66
2023/06/21 09:43:21;;;;;;;2.20;2.10;;;25.70;99.90;;;26.07;64.34;101566.88;5052586;28;20068;-67
2023/06/21 09:46:05;;;;;;;2.10;2.00;;;25.70;99.90;;;26.26;65.08;101574.81;5052629;28;20067;-66
2023/06/21 09:48:35;;;;;;;2.08;1.98;;;25.80;99.90;;;26.41;64.99;101573.91;5049834;28;20768;-67
2023/06/21 09:51:08;;;;;;;1.70;1.70;;;26.00;99.90;;;26.58;64.10;101577.38;5052140;28;20048;-66
2023/06/21 09:53:37;;;;;;;2.20;2.10;;;26.20;99.90;;;26.72;62.93;101582.03;5052336;28;20045;-67
2023/06/21 09:56:06;;;;;;;1.80;1.80;;;26.40;99.90;;;26.89;63.71;101587.31;5048400;28;20103;-66
2023/06/21 09:58:35;;;;;;;1.67;1.67;;;26.60;99.90;;;26.91;61.65;101598.94;5048420;28;20048;-66
2023/06/21 10:01:07;;;;;;;2.05;1.95;;;26.60;99.90;;;26.99;62.14;101603.91;5052164;28;20099;-66
2023/06/21 10:03:36;;;;;;;1.50;1.50;;;26.60;99.90;;;27.07;62.34;101604.31;5052651;28;20056;-67
2023/06/21 10:06:06;;;;;;;1.48;1.48;;;26.70;99.90;;;27.27;62.84;101601.28;5051942;28;20052;-66
2023/06/21 10:08:36;;;;;;;2.80;2.20;;;26.90;99.90;;;27.21;61.10;101597.09;5051710;28;20177;-66
2023/06/21 10:11:05;;;;;;;1.63;1.63;;;26.90;99.90;;;27.21;60.35;101599.81;5051196;28;20480;-66
2023/06/21 10:13:37;;;;;;;2.20;2.10;;;26.90;99.90;;;27.13;60.81;101584.94;5051717;28;20439;-66
2023/06/21 10:16:06;;;;;;;1.63;1.63;;;26.80;99.90;;;27.03;61.09;101590.06;5048441;28;20037;-66
2023/06/21 10:18:35;;;;;;;1.42;1.42;;;26.80;99.90;;;26.76;60.83;101551.88;5051841;28;20544;-67
2023/06/21 10:21:11;;;;;;;1.42;1.42;;;26.70;99.90;;;27.10;60.90;101615.03;5051805;28;20057;-67
2023/06/21 10:23:43;;;;;;;1.45;1.40;;;26.80;99.90;;;26.98;61.83;101618.47;5051549;28;20044;-66
2023/06/21 10:26:14;;;;;;;1.60;1.60;;;26.60;99.90;;;26.99;61.91;101623.81;5051434;28;20051;-66